sensor_id;sensor_type;location;lat;lon;timestamp;temperature;humidity
11736;DHT22;5924;51.398;7.088;2022-09-02T00:01:16;13.00;1.00
11736;DHT22;5924;51.398;7.088;2022-09-02T00:03:44;12.90;1.00
11736;DHT22;5924;51.398;7.088;2022-09-02T00:06:11;12.30;1.00
11736;DHT22;5924;51.398;7.088;2022-09-02T00:08:37;12.90;1.00
11736;DHT22;5924;51.398;7.088;2022-09-02T00:11:04;12.80;1.00
11736;DHT22;5924;51.398;7.088;2022-09-02T00:13:32;12.80;1.00
11736;DHT22;5924;51.398;7.088;2022-09-02T00:16:00;12.80;1.00
11736;DHT22;5924;51.398;7.088;2022-09-02T00:18:26;12.70;1.00
11736;DHT22;5924;51.398;7.088;2022-09-02T00:20:52;12.70;1.00
11736;DHT22;5924;51.398;7.088;2022-09-02T00:23:18;12.70;1.00
11736;DHT22;5924;51.398;7.088;2022-09-02T00:25:44;12.70;1.00
11736;DHT22;5924;51.398;7.088;2022-09-02T00:28:11;12.60;1.00
11736;DHT22;5924;51.398;7.088;2022-09-02T00:30:38;12.60;1.00
11736;DHT22;5924;51.398;7.088;2022-09-02T00:33:05;12.60;1.00
11736;DHT22;5924;51.398;7.088;2022-09-02T00:35:31;12.60;1.00
11736;DHT22;5924;51.398;7.088;2022-09-02T00:37:57;12.60;1.00
11736;DHT22;5924;51.398;7.088;2022-09-02T00:40:23;12.60;1.00
11736;DHT22;5924;51.398;7.088;2022-09-02T00:42:50;12.60;1.00
11736;DHT22;5924;51.398;7.088;2022-09-02T00:45:16;12.60;1.00
11736;DHT22;5924;51.398;7.088;2022-09-02T00:47:43;12.70;1.00
11736;DHT22;5924;51.398;7.088;2022-09-02T00:50:12;12.70;1.00
11736;DHT22;5924;51.398;7.088;2022-09-02T00:52:45;12.70;1.00
11736;DHT22;5924;51.398;7.088;2022-09-02T00:55:18;12.80;1.00
11736;DHT22;5924;51.398;7.088;2022-09-02T00:57:49;12.80;1.00
11736;DHT22;5924;51.398;7.088;2022-09-02T01:00:27;12.80;1.00
11736;DHT22;5924;51.398;7.088;2022-09-02T01:02:59;12.80;1.00
11736;DHT22;5924;51.398;7.088;2022-09-02T01:05:28;12.80;1.00
11736;DHT22;5924;51.398;7.088;2022-09-02T01:07:55;12.80;1.00
11736;DHT22;5924;51.398;7.088;2022-09-02T01:10:24;12.80;1.00
11736;DHT22;5924;51.398;7.088;2022-09-02T01:12:55;12.80;1.00
11736;DHT22;5924;51.398;7.088;2022-09-02T01:15:22;12.80;1.00
11736;DHT22;5924;51.398;7.088;2022-09-02T01:17:49;12.80;1.00
11736;DHT22;5924;51.398;7.088;2022-09-02T01:20:21;12.80;1.00
11736;DHT22;5924;51.398;7.088;2022-09-02T01:22:48;12.80;1.00
11736;DHT22;5924;51.398;7.088;2022-09-02T01:25:19;12.80;1.00
11736;DHT22;5924;51.398;7.088;2022-09-02T01:27:45;12.80;1.00
11736;DHT22;5924;51.398;7.088;2022-09-02T01:30:16;12.80;1.00
11736;DHT22;5924;51.398;7.088;2022-09-02T01:32:42;12.80;1.00
11736;DHT22;5924;51.398;7.088;2022-09-02T01:35:08;12.80;1.00
11736;DHT22;5924;51.398;7.088;2022-09-02T01:37:33;12.70;1.00
11736;DHT22;5924;51.398;7.088;2022-09-02T01:39:59;12.70;1.00
11736;DHT22;5924;51.398;7.088;2022-09-02T01:42:25;12.70;1.00
11736;DHT22;5924;51.398;7.088;2022-09-02T01:44:51;12.70;1.00
11736;DHT22;5924;51.398;7.088;2022-09-02T01:47:20;12.70;1.00
11736;DHT22;5924;51.398;7.088;2022-09-02T01:49:47;12.80;1.00
11736;DHT22;5924;51.398;7.088;2022-09-02T01:52:14;12.70;1.00
11736;DHT22;5924;51.398;7.088;2022-09-02T01:54:41;12.70;1.00
11736;DHT22;5924;51.398;7.088;2022-09-02T01:57:07;10.40;1.00
11736;DHT22;5924;51.398;7.088;2022-09-02T01:59:32;12.70;1.00
11736;DHT22;5924;51.398;7.088;2022-09-02T02:01:58;12.70;1.00
11736;DHT22;5924;51.398;7.088;2022-09-02T02:04:24;12.70;1.00
11736;DHT22;5924;51.398;7.088;2022-09-02T02:06:51;12.70;1.00
11736;DHT22;5924;51.398;7.088;2022-09-02T02:09:17;12.70;1.00
11736;DHT22;5924;51.398;7.088;2022-09-02T02:11:44;12.70;1.00
11736;DHT22;5924;51.398;7.088;2022-09-02T02:14:10;12.70;1.00
11736;DHT22;5924;51.398;7.088;2022-09-02T02:16:36;12.20;1.00
11736;DHT22;5924;51.398;7.088;2022-09-02T02:19:03;12.50;1.00
11736;DHT22;5924;51.398;7.088;2022-09-02T02:21:29;12.50;1.00
11736;DHT22;5924;51.398;7.088;2022-09-02T02:23:56;12.50;1.00
11736;DHT22;5924;51.398;7.088;2022-09-02T02:26:22;12.40;1.00
11736;DHT22;5924;51.398;7.088;2022-09-02T02:28:48;12.40;1.00
11736;DHT22;5924;51.398;7.088;2022-09-02T02:31:14;12.30;1.00
11736;DHT22;5924;51.398;7.088;2022-09-02T02:33:39;12.30;1.00
11736;DHT22;5924;51.398;7.088;2022-09-02T02:36:06;13.20;1.00
11736;DHT22;5924;51.398;7.088;2022-09-02T02:38:34;12.20;1.00
11736;DHT22;5924;51.398;7.088;2022-09-02T02:41:00;12.20;1.00
11736;DHT22;5924;51.398;7.088;2022-09-02T02:43:26;12.20;1.00
11736;DHT22;5924;51.398;7.088;2022-09-02T02:45:52;12.10;1.00
11736;DHT22;5924;51.398;7.088;2022-09-02T02:48:19;12.10;1.00
11736;DHT22;5924;51.398;7.088;2022-09-02T02:50:45;12.10;1.00
11736;DHT22;5924;51.398;7.088;2022-09-02T02:53:11;12.10;1.00
11736;DHT22;5924;51.398;7.088;2022-09-02T02:55:37;12.00;1.00
11736;DHT22;5924;51.398;7.088;2022-09-02T02:58:03;12.00;1.00
11736;DHT22;5924;51.398;7.088;2022-09-02T03:00:30;12.00;1.00
11736;DHT22;5924;51.398;7.088;2022-09-02T03:02:58;12.00;1.00
11736;DHT22;5924;51.398;7.088;2022-09-02T03:05:25;12.00;1.00
11736;DHT22;5924;51.398;7.088;2022-09-02T03:07:51;11.90;1.00
11736;DHT22;5924;51.398;7.088;2022-09-02T03:10:18;11.90;1.00
11736;DHT22;5924;51.398;7.088;2022-09-02T03:12:44;11.90;1.00
11736;DHT22;5924;51.398;7.088;2022-09-02T03:15:15;11.90;1.00
11736;DHT22;5924;51.398;7.088;2022-09-02T03:17:45;11.90;1.00
11736;DHT22;5924;51.398;7.088;2022-09-02T03:20:12;11.90;1.00
11736;DHT22;5924;51.398;7.088;2022-09-02T03:22:41;11.90;1.00
11736;DHT22;5924;51.398;7.088;2022-09-02T03:25:08;11.90;1.00
11736;DHT22;5924;51.398;7.088;2022-09-02T03:27:38;11.90;1.00
11736;DHT22;5924;51.398;7.088;2022-09-02T03:30:07;11.80;1.00
11736;DHT22;5924;51.398;7.088;2022-09-02T03:32:33;11.90;1.00
11736;DHT22;5924;51.398;7.088;2022-09-02T03:35:01;11.90;1.00
11736;DHT22;5924;51.398;7.088;2022-09-02T03:37:26;11.90;1.00
11736;DHT22;5924;51.398;7.088;2022-09-02T03:39:52;11.90;1.00
11736;DHT22;5924;51.398;7.088;2022-09-02T03:42:18;11.90;1.00
11736;DHT22;5924;51.398;7.088;2022-09-02T03:44:43;11.90;1.00
11736;DHT22;5924;51.398;7.088;2022-09-02T03:47:09;12.00;1.00
11736;DHT22;5924;51.398;7.088;2022-09-02T03:49:35;12.00;1.00
11736;DHT22;5924;51.398;7.088;2022-09-02T03:52:01;12.00;1.00
11736;DHT22;5924;51.398;7.088;2022-09-02T03:54:26;12.00;1.00
11736;DHT22;5924;51.398;7.088;2022-09-02T03:56:53;12.00;1.00
11736;DHT22;5924;51.398;7.088;2022-09-02T03:59:19;12.10;1.00
11736;DHT22;5924;51.398;7.088;2022-09-02T04:01:44;12.10;1.00
11736;DHT22;5924;51.398;7.088;2022-09-02T04:04:10;12.10;1.00
11736;DHT22;5924;51.398;7.088;2022-09-02T04:06:36;12.20;1.00
11736;DHT22;5924;51.398;7.088;2022-09-02T04:09:03;12.20;1.00
11736;DHT22;5924;51.398;7.088;2022-09-02T04:11:29;12.20;1.00
11736;DHT22;5924;51.398;7.088;2022-09-02T04:13:54;12.20;1.00
11736;DHT22;5924;51.398;7.088;2022-09-02T04:23:04;12.00;1.00
11736;DHT22;5924;51.398;7.088;2022-09-02T04:25:30;12.00;1.00
11736;DHT22;5924;51.398;7.088;2022-09-02T04:27:56;12.00;1.00
11736;DHT22;5924;51.398;7.088;2022-09-02T04:30:22;12.00;1.00
11736;DHT22;5924;51.398;7.088;2022-09-02T04:32:50;12.00;1.00
11736;DHT22;5924;51.398;7.088;2022-09-02T04:35:16;12.00;1.00
11736;DHT22;5924;51.398;7.088;2022-09-02T04:37:41;12.00;1.00
11736;DHT22;5924;51.398;7.088;2022-09-02T04:40:08;12.00;1.00
11736;DHT22;5924;51.398;7.088;2022-09-02T04:42:34;12.00;1.00
11736;DHT22;5924;51.398;7.088;2022-09-02T04:45:00;12.00;1.00
11736;DHT22;5924;51.398;7.088;2022-09-02T04:47:26;12.10;1.00
11736;DHT22;5924;51.398;7.088;2022-09-02T04:49:52;12.20;1.00
11736;DHT22;5924;51.398;7.088;2022-09-02T04:52:18;12.20;1.00
11736;DHT22;5924;51.398;7.088;2022-09-02T04:54:45;12.20;1.00
11736;DHT22;5924;51.398;7.088;2022-09-02T04:57:11;12.30;1.00
11736;DHT22;5924;51.398;7.088;2022-09-02T04:59:37;12.20;1.00
11736;DHT22;5924;51.398;7.088;2022-09-02T05:02:04;12.20;1.00
11736;DHT22;5924;51.398;7.088;2022-09-02T05:04:31;12.20;1.00
11736;DHT22;5924;51.398;7.088;2022-09-02T05:06:57;12.20;1.00
11736;DHT22;5924;51.398;7.088;2022-09-02T05:09:26;12.10;1.00
11736;DHT22;5924;51.398;7.088;2022-09-02T05:11:51;12.10;1.00
11736;DHT22;5924;51.398;7.088;2022-09-02T05:14:22;12.10;1.00
11736;DHT22;5924;51.398;7.088;2022-09-02T05:16:48;12.10;1.00
11736;DHT22;5924;51.398;7.088;2022-09-02T05:19:21;12.10;1.00
11736;DHT22;5924;51.398;7.088;2022-09-02T05:21:48;12.00;1.00
11736;DHT22;5924;51.398;7.088;2022-09-02T05:24:15;12.00;1.00
11736;DHT22;5924;51.398;7.088;2022-09-02T05:26:41;12.00;1.00
11736;DHT22;5924;51.398;7.088;2022-09-02T05:29:10;12.00;1.00
11736;DHT22;5924;51.398;7.088;2022-09-02T05:31:36;12.10;1.00
11736;DHT22;5924;51.398;7.088;2022-09-02T05:34:03;12.10;1.00
11736;DHT22;5924;51.398;7.088;2022-09-02T05:36:29;12.10;1.00
11736;DHT22;5924;51.398;7.088;2022-09-02T05:38:57;12.10;1.00
11736;DHT22;5924;51.398;7.088;2022-09-02T05:41:24;12.20;1.00
11736;DHT22;5924;51.398;7.088;2022-09-02T05:43:57;12.30;1.00
11736;DHT22;5924;51.398;7.088;2022-09-02T05:46:24;12.40;1.00
11736;DHT22;5924;51.398;7.088;2022-09-02T05:48:51;12.50;1.00
11736;DHT22;5924;51.398;7.088;2022-09-02T05:54:02;12.80;1.00
11736;DHT22;5924;51.398;7.088;2022-09-02T05:56:28;13.00;1.00
11736;DHT22;5924;51.398;7.088;2022-09-02T05:58:55;13.20;1.00
11736;DHT22;5924;51.398;7.088;2022-09-02T06:01:21;13.30;1.00
11736;DHT22;5924;51.398;7.088;2022-09-02T06:03:47;13.40;1.00
11736;DHT22;5924;51.398;7.088;2022-09-02T06:06:13;13.50;1.00
11736;DHT22;5924;51.398;7.088;2022-09-02T06:08:39;13.60;1.00
11736;DHT22;5924;51.398;7.088;2022-09-02T06:11:08;13.70;1.00
11736;DHT22;5924;51.398;7.088;2022-09-02T06:13:36;13.80;1.00
11736;DHT22;5924;51.398;7.088;2022-09-02T06:16:03;13.90;1.00
11736;DHT22;5924;51.398;7.088;2022-09-02T06:18:28;14.00;1.00
11736;DHT22;5924;51.398;7.088;2022-09-02T06:20:54;14.10;1.00
11736;DHT22;5924;51.398;7.088;2022-09-02T06:23:20;14.20;99.90
11736;DHT22;5924;51.398;7.088;2022-09-02T06:25:47;14.30;99.90
11736;DHT22;5924;51.398;7.088;2022-09-02T06:28:14;13.50;99.90
11736;DHT22;5924;51.398;7.088;2022-09-02T06:30:42;14.50;99.90
11736;DHT22;5924;51.398;7.088;2022-09-02T06:33:09;14.60;99.90
11736;DHT22;5924;51.398;7.088;2022-09-02T06:35:37;14.70;99.90
11736;DHT22;5924;51.398;7.088;2022-09-02T06:38:03;14.80;99.90
11736;DHT22;5924;51.398;7.088;2022-09-02T06:40:29;13.70;99.90
11736;DHT22;5924;51.398;7.088;2022-09-02T06:42:54;15.90;99.90
11736;DHT22;5924;51.398;7.088;2022-09-02T06:45:20;15.00;99.90
11736;DHT22;5924;51.398;7.088;2022-09-02T06:47:48;15.00;1.00
11736;DHT22;5924;51.398;7.088;2022-09-02T06:50:14;15.10;62.00
11736;DHT22;5924;51.398;7.088;2022-09-02T06:52:40;15.30;1.00
11736;DHT22;5924;51.398;7.088;2022-09-02T06:55:06;15.40;1.00
11736;DHT22;5924;51.398;7.088;2022-09-02T06:57:32;15.60;1.00
11736;DHT22;5924;51.398;7.088;2022-09-02T06:59:58;15.80;1.00
11736;DHT22;5924;51.398;7.088;2022-09-02T07:02:23;15.90;1.00
11736;DHT22;5924;51.398;7.088;2022-09-02T07:04:49;16.00;1.00
11736;DHT22;5924;51.398;7.088;2022-09-02T07:07:35;16.10;1.00
11736;DHT22;5924;51.398;7.088;2022-09-02T07:10:00;16.20;1.00
11736;DHT22;5924;51.398;7.088;2022-09-02T07:12:26;16.30;1.00
11736;DHT22;5924;51.398;7.088;2022-09-02T07:14:52;16.50;1.00
11736;DHT22;5924;51.398;7.088;2022-09-02T07:17:19;16.60;15.70
11736;DHT22;5924;51.398;7.088;2022-09-02T07:19:50;16.70;99.90
11736;DHT22;5924;51.398;7.088;2022-09-02T07:22:16;16.90;99.90
11736;DHT22;5924;51.398;7.088;2022-09-02T07:24:42;17.10;18.70
11736;DHT22;5924;51.398;7.088;2022-09-02T07:27:08;17.20;1.00
11736;DHT22;5924;51.398;7.088;2022-09-02T07:29:34;17.20;99.90
11736;DHT22;5924;51.398;7.088;2022-09-02T07:32:00;17.30;99.90
11736;DHT22;5924;51.398;7.088;2022-09-02T07:34:26;17.40;1.00
11736;DHT22;5924;51.398;7.088;2022-09-02T07:36:52;17.40;99.90
11736;DHT22;5924;51.398;7.088;2022-09-02T07:39:18;17.40;1.00
11736;DHT22;5924;51.398;7.088;2022-09-02T07:41:47;17.40;1.00
11736;DHT22;5924;51.398;7.088;2022-09-02T07:44:14;17.60;99.90
11736;DHT22;5924;51.398;7.088;2022-09-02T07:46:40;17.80;1.00
11736;DHT22;5924;51.398;7.088;2022-09-02T07:49:08;17.90;1.00
11736;DHT22;5924;51.398;7.088;2022-09-02T07:51:35;18.00;1.00
11736;DHT22;5924;51.398;7.088;2022-09-02T07:54:05;18.20;99.90
11736;DHT22;5924;51.398;7.088;2022-09-02T07:56:31;18.30;1.00
11736;DHT22;5924;51.398;7.088;2022-09-02T07:58:57;18.50;1.00
11736;DHT22;5924;51.398;7.088;2022-09-02T08:01:23;18.60;99.90
11736;DHT22;5924;51.398;7.088;2022-09-02T08:03:49;18.70;1.00
11736;DHT22;5924;51.398;7.088;2022-09-02T08:06:15;18.70;99.90
11736;DHT22;5924;51.398;7.088;2022-09-02T08:08:42;18.90;1.00
11736;DHT22;5924;51.398;7.088;2022-09-02T08:11:08;19.10;1.00
11736;DHT22;5924;51.398;7.088;2022-09-02T08:13:35;19.20;1.00
11736;DHT22;5924;51.398;7.088;2022-09-02T08:16:01;19.40;99.90
11736;DHT22;5924;51.398;7.088;2022-09-02T08:18:28;19.50;99.90
11736;DHT22;5924;51.398;7.088;2022-09-02T08:20:54;19.60;1.00
11736;DHT22;5924;51.398;7.088;2022-09-02T08:23:20;19.70;1.00
11736;DHT22;5924;51.398;7.088;2022-09-02T08:25:46;19.70;1.00
11736;DHT22;5924;51.398;7.088;2022-09-02T08:28:11;19.90;1.00
11736;DHT22;5924;51.398;7.088;2022-09-02T08:30:38;20.10;99.90
11736;DHT22;5924;51.398;7.088;2022-09-02T08:33:04;20.20;99.90
11736;DHT22;5924;51.398;7.088;2022-09-02T08:35:29;20.30;99.90
11736;DHT22;5924;51.398;7.088;2022-09-02T08:37:57;20.30;99.90
11736;DHT22;5924;51.398;7.088;2022-09-02T08:40:32;20.30;99.90
11736;DHT22;5924;51.398;7.088;2022-09-02T08:43:00;20.30;99.90
11736;DHT22;5924;51.398;7.088;2022-09-02T08:48:05;20.50;99.90
11736;DHT22;5924;51.398;7.088;2022-09-02T08:50:33;20.80;99.90
11736;DHT22;5924;51.398;7.088;2022-09-02T08:53:18;21.00;99.90
11736;DHT22;5924;51.398;7.088;2022-09-02T08:55:53;21.30;93.50
11736;DHT22;5924;51.398;7.088;2022-09-02T08:58:22;21.60;24.20
11736;DHT22;5924;51.398;7.088;2022-09-02T09:09:36;22.60;1.00
11736;DHT22;5924;51.398;7.088;2022-09-02T09:17:29;23.00;1.00
11736;DHT22;5924;51.398;7.088;2022-09-02T09:20:00;23.10;1.00
11736;DHT22;5924;51.398;7.088;2022-09-02T09:22:31;23.20;1.00
11736;DHT22;5924;51.398;7.088;2022-09-02T09:24:58;23.40;1.00
11736;DHT22;5924;51.398;7.088;2022-09-02T09:27:24;23.40;1.00
11736;DHT22;5924;51.398;7.088;2022-09-02T09:29:51;23.60;1.00
11736;DHT22;5924;51.398;7.088;2022-09-02T09:32:39;23.60;1.00
11736;DHT22;5924;51.398;7.088;2022-09-02T09:35:07;23.80;1.00
11736;DHT22;5924;51.398;7.088;2022-09-02T09:37:40;23.80;1.00
11736;DHT22;5924;51.398;7.088;2022-09-02T09:45:44;23.20;1.00
11736;DHT22;5924;51.398;7.088;2022-09-02T09:48:21;21.60;1.00
11736;DHT22;5924;51.398;7.088;2022-09-02T09:53:31;23.70;1.00
11736;DHT22;5924;51.398;7.088;2022-09-02T09:55:59;23.80;1.00
11736;DHT22;5924;51.398;7.088;2022-09-02T10:01:13;23.80;1.00
11736;DHT22;5924;51.398;7.088;2022-09-02T10:04:07;23.80;1.00
11736;DHT22;5924;51.398;7.088;2022-09-02T10:06:43;22.80;1.00
11736;DHT22;5924;51.398;7.088;2022-09-02T10:12:04;24.10;1.00
11736;DHT22;5924;51.398;7.088;2022-09-02T10:14:48;24.20;1.00
11736;DHT22;5924;51.398;7.088;2022-09-02T10:25:33;24.20;1.00
11736;DHT22;5924;51.398;7.088;2022-09-02T10:34:00;24.60;1.00
11736;DHT22;5924;51.398;7.088;2022-09-02T10:39:50;24.40;1.00
11736;DHT22;5924;51.398;7.088;2022-09-02T10:54:07;24.80;1.00
11736;DHT22;5924;51.398;7.088;2022-09-02T10:57:09;24.90;1.00
11736;DHT22;5924;51.398;7.088;2022-09-02T11:00:05;25.00;1.00
11736;DHT22;5924;51.398;7.088;2022-09-02T11:05:53;25.00;1.00
11736;DHT22;5924;51.398;7.088;2022-09-02T11:08:48;25.20;1.00
11736;DHT22;5924;51.398;7.088;2022-09-02T11:14:22;25.60;1.00
11736;DHT22;5924;51.398;7.088;2022-09-02T11:16:57;26.00;1.00
11736;DHT22;5924;51.398;7.088;2022-09-02T11:20:17;26.00;1.00
11736;DHT22;5924;51.398;7.088;2022-09-02T11:23:02;26.00;1.00
11736;DHT22;5924;51.398;7.088;2022-09-02T11:25:39;26.00;1.00
11736;DHT22;5924;51.398;7.088;2022-09-02T11:30:53;26.30;1.00
11736;DHT22;5924;51.398;7.088;2022-09-02T11:33:45;26.40;1.00
11736;DHT22;5924;51.398;7.088;2022-09-02T11:36:12;26.50;1.00
11736;DHT22;5924;51.398;7.088;2022-09-02T11:38:42;26.50;1.00
11736;DHT22;5924;51.398;7.088;2022-09-02T11:41:37;26.80;1.00
11736;DHT22;5924;51.398;7.088;2022-09-02T11:54:40;26.90;1.00
11736;DHT22;5924;51.398;7.088;2022-09-02T11:57:11;25.10;1.00
11736;DHT22;5924;51.398;7.088;2022-09-02T12:08:08;26.20;1.00
11736;DHT22;5924;51.398;7.088;2022-09-02T12:21:33;28.10;1.00
11736;DHT22;5924;51.398;7.088;2022-09-02T12:27:01;30.30;1.00
11736;DHT22;5924;51.398;7.088;2022-09-02T12:31:53;29.10;1.00
11736;DHT22;5924;51.398;7.088;2022-09-02T12:50:07;30.90;1.00
11736;DHT22;5924;51.398;7.088;2022-09-02T12:57:54;32.70;1.00
11736;DHT22;5924;51.398;7.088;2022-09-02T13:00:34;31.80;1.00
11736;DHT22;5924;51.398;7.088;2022-09-02T13:03:08;31.90;1.00
11736;DHT22;5924;51.398;7.088;2022-09-02T13:05:53;32.50;1.00
11736;DHT22;5924;51.398;7.088;2022-09-02T13:16:15;32.60;1.00
11736;DHT22;5924;51.398;7.088;2022-09-02T13:27:25;35.50;1.00
11736;DHT22;5924;51.398;7.088;2022-09-02T13:32:44;37.00;1.00
11736;DHT22;5924;51.398;7.088;2022-09-02T13:35:19;36.70;1.00
11736;DHT22;5924;51.398;7.088;2022-09-02T13:37:56;37.50;1.00
11736;DHT22;5924;51.398;7.088;2022-09-02T13:42:55;37.80;1.00
11736;DHT22;5924;51.398;7.088;2022-09-02T13:45:24;38.00;1.00
11736;DHT22;5924;51.398;7.088;2022-09-02T13:47:52;38.20;1.00
11736;DHT22;5924;51.398;7.088;2022-09-02T13:50:21;38.20;1.00
11736;DHT22;5924;51.398;7.088;2022-09-02T13:53:12;38.00;1.00
11736;DHT22;5924;51.398;7.088;2022-09-02T13:55:35;38.40;1.00
11736;DHT22;5924;51.398;7.088;2022-09-02T13:58:06;39.00;1.00
11736;DHT22;5924;51.398;7.088;2022-09-02T14:00:36;39.10;1.00
11736;DHT22;5924;51.398;7.088;2022-09-02T14:03:08;39.10;1.00
11736;DHT22;5924;51.398;7.088;2022-09-02T14:05:37;39.10;1.00
11736;DHT22;5924;51.398;7.088;2022-09-02T14:08:06;39.40;1.00
11736;DHT22;5924;51.398;7.088;2022-09-02T14:10:34;39.50;1.00
11736;DHT22;5924;51.398;7.088;2022-09-02T14:13:02;39.20;1.00
11736;DHT22;5924;51.398;7.088;2022-09-02T14:15:31;37.80;1.00
11736;DHT22;5924;51.398;7.088;2022-09-02T14:18:10;37.40;1.00
11736;DHT22;5924;51.398;7.088;2022-09-02T14:21:01;37.70;1.00
11736;DHT22;5924;51.398;7.088;2022-09-02T14:23:30;36.40;1.00
11736;DHT22;5924;51.398;7.088;2022-09-02T14:26:00;34.90;1.00
11736;DHT22;5924;51.398;7.088;2022-09-02T14:28:31;33.10;1.00
11736;DHT22;5924;51.398;7.088;2022-09-02T14:31:03;31.50;1.00
11736;DHT22;5924;51.398;7.088;2022-09-02T14:41:32;28.20;1.00
11736;DHT22;5924;51.398;7.088;2022-09-02T14:43:59;27.80;1.00
11736;DHT22;5924;51.398;7.088;2022-09-02T14:49:02;30.00;1.00
11736;DHT22;5924;51.398;7.088;2022-09-02T14:51:50;32.40;1.00
11736;DHT22;5924;51.398;7.088;2022-09-02T14:54:45;34.20;1.00
11736;DHT22;5924;51.398;7.088;2022-09-02T14:57:32;35.70;1.00
11736;DHT22;5924;51.398;7.088;2022-09-02T15:00:10;36.70;1.00
11736;DHT22;5924;51.398;7.088;2022-09-02T15:02:41;37.60;1.00
11736;DHT22;5924;51.398;7.088;2022-09-02T15:05:09;38.10;1.00
11736;DHT22;5924;51.398;7.088;2022-09-02T15:07:35;38.00;1.00
11736;DHT22;5924;51.398;7.088;2022-09-02T15:10:01;37.60;1.00
11736;DHT22;5924;51.398;7.088;2022-09-02T15:12:29;37.30;1.00
11736;DHT22;5924;51.398;7.088;2022-09-02T15:14:56;35.50;1.00
11736;DHT22;5924;51.398;7.088;2022-09-02T15:17:22;33.40;1.00
11736;DHT22;5924;51.398;7.088;2022-09-02T15:19:48;31.40;1.00
11736;DHT22;5924;51.398;7.088;2022-09-02T15:22:15;30.00;1.00
11736;DHT22;5924;51.398;7.088;2022-09-02T15:24:41;30.50;1.00
11736;DHT22;5924;51.398;7.088;2022-09-02T15:27:08;31.90;1.00
11736;DHT22;5924;51.398;7.088;2022-09-02T15:29:34;33.50;1.00
11736;DHT22;5924;51.398;7.088;2022-09-02T15:32:00;35.10;1.00
11736;DHT22;5924;51.398;7.088;2022-09-02T15:34:29;35.70;1.00
11736;DHT22;5924;51.398;7.088;2022-09-02T15:36:55;36.60;1.00
11736;DHT22;5924;51.398;7.088;2022-09-02T15:39:21;37.20;1.00
11736;DHT22;5924;51.398;7.088;2022-09-02T15:41:48;37.50;1.00
11736;DHT22;5924;51.398;7.088;2022-09-02T15:44:16;37.80;1.00
11736;DHT22;5924;51.398;7.088;2022-09-02T15:46:42;37.70;1.00
11736;DHT22;5924;51.398;7.088;2022-09-02T15:49:11;37.20;1.00
11736;DHT22;5924;51.398;7.088;2022-09-02T15:51:38;36.70;1.00
11736;DHT22;5924;51.398;7.088;2022-09-02T15:54:06;36.30;1.00
11736;DHT22;5924;51.398;7.088;2022-09-02T15:56:34;36.70;1.00
11736;DHT22;5924;51.398;7.088;2022-09-02T15:59:03;36.70;1.00
11736;DHT22;5924;51.398;7.088;2022-09-02T16:01:31;35.10;1.00
11736;DHT22;5924;51.398;7.088;2022-09-02T16:03:58;33.40;1.00
11736;DHT22;5924;51.398;7.088;2022-09-02T16:06:24;32.30;1.00
11736;DHT22;5924;51.398;7.088;2022-09-02T16:08:50;32.30;1.00
11736;DHT22;5924;51.398;7.088;2022-09-02T16:11:17;33.50;1.00
11736;DHT22;5924;51.398;7.088;2022-09-02T16:13:43;34.90;1.00
11736;DHT22;5924;51.398;7.088;2022-09-02T16:16:10;36.20;1.00
11736;DHT22;5924;51.398;7.088;2022-09-02T16:18:37;36.90;1.00
11736;DHT22;5924;51.398;7.088;2022-09-02T16:21:08;37.30;1.00
11736;DHT22;5924;51.398;7.088;2022-09-02T16:23:34;37.40;1.00
11736;DHT22;5924;51.398;7.088;2022-09-02T16:26:35;37.20;1.00
11736;DHT22;5924;51.398;7.088;2022-09-02T16:29:02;36.70;1.00
11736;DHT22;5924;51.398;7.088;2022-09-02T16:31:29;36.10;1.00
11736;DHT22;5924;51.398;7.088;2022-09-02T16:33:59;35.50;1.00
11736;DHT22;5924;51.398;7.088;2022-09-02T16:36:26;34.70;1.00
11736;DHT22;5924;51.398;7.088;2022-09-02T16:38:52;34.20;1.00
11736;DHT22;5924;51.398;7.088;2022-09-02T16:41:26;34.20;1.00
11736;DHT22;5924;51.398;7.088;2022-09-02T16:43:56;34.40;1.00
11736;DHT22;5924;51.398;7.088;2022-09-02T16:46:23;34.40;1.00
11736;DHT22;5924;51.398;7.088;2022-09-02T16:48:49;34.20;1.00
11736;DHT22;5924;51.398;7.088;2022-09-02T16:51:15;33.80;1.00
11736;DHT22;5924;51.398;7.088;2022-09-02T16:53:41;33.20;1.00
11736;DHT22;5924;51.398;7.088;2022-09-02T16:56:14;32.50;1.00
11736;DHT22;5924;51.398;7.088;2022-09-02T16:58:41;31.50;1.00
11736;DHT22;5924;51.398;7.088;2022-09-02T17:01:09;30.50;1.00
11736;DHT22;5924;51.398;7.088;2022-09-02T17:03:39;29.40;1.00
11736;DHT22;5924;51.398;7.088;2022-09-02T17:06:06;28.30;1.00
11736;DHT22;5924;51.398;7.088;2022-09-02T17:08:32;27.40;1.00
11736;DHT22;5924;51.398;7.088;2022-09-02T17:13:47;26.00;1.00
11736;DHT22;5924;51.398;7.088;2022-09-02T17:16:14;25.50;1.00
11736;DHT22;5924;51.398;7.088;2022-09-02T17:18:39;25.10;1.00
11736;DHT22;5924;51.398;7.088;2022-09-02T17:21:16;24.80;1.00
11736;DHT22;5924;51.398;7.088;2022-09-02T17:23:43;24.60;1.00
11736;DHT22;5924;51.398;7.088;2022-09-02T17:26:09;24.30;1.00
11736;DHT22;5924;51.398;7.088;2022-09-02T17:28:35;24.20;1.00
11736;DHT22;5924;51.398;7.088;2022-09-02T17:31:38;24.00;1.00
11736;DHT22;5924;51.398;7.088;2022-09-02T17:34:06;23.80;1.00
11736;DHT22;5924;51.398;7.088;2022-09-02T17:36:34;23.70;1.00
11736;DHT22;5924;51.398;7.088;2022-09-02T17:39:06;23.60;1.00
11736;DHT22;5924;51.398;7.088;2022-09-02T17:41:31;23.50;1.00
11736;DHT22;5924;51.398;7.088;2022-09-02T17:44:16;23.40;1.00
11736;DHT22;5924;51.398;7.088;2022-09-02T17:46:43;23.30;1.00
11736;DHT22;5924;51.398;7.088;2022-09-02T17:49:09;23.20;1.00
11736;DHT22;5924;51.398;7.088;2022-09-02T17:51:35;23.00;1.00
11736;DHT22;5924;51.398;7.088;2022-09-02T17:54:01;22.90;1.00
11736;DHT22;5924;51.398;7.088;2022-09-02T17:59:11;22.60;1.00
11736;DHT22;5924;51.398;7.088;2022-09-02T18:04:51;22.10;1.00
11736;DHT22;5924;51.398;7.088;2022-09-02T18:09:53;21.70;1.00
11736;DHT22;5924;51.398;7.088;2022-09-02T18:12:19;21.50;1.00
11736;DHT22;5924;51.398;7.088;2022-09-02T18:14:49;21.30;1.00
11736;DHT22;5924;51.398;7.088;2022-09-02T18:20:02;20.90;1.00
11736;DHT22;5924;51.398;7.088;2022-09-02T18:39:36;19.80;1.00
11736;DHT22;5924;51.398;7.088;2022-09-02T18:48:04;19.40;1.00
11736;DHT22;5924;51.398;7.088;2022-09-02T18:50:34;19.40;1.00
11736;DHT22;5924;51.398;7.088;2022-09-02T18:53:05;19.30;1.00
11736;DHT22;5924;51.398;7.088;2022-09-02T18:55:34;19.20;1.00
11736;DHT22;5924;51.398;7.088;2022-09-02T18:58:53;19.10;1.00
11736;DHT22;5924;51.398;7.088;2022-09-02T19:03:38;19.00;1.00
11736;DHT22;5924;51.398;7.088;2022-09-02T19:06:09;18.90;1.00
11736;DHT22;5924;51.398;7.088;2022-09-02T19:08:36;18.80;1.00
11736;DHT22;5924;51.398;7.088;2022-09-02T19:13:29;18.70;1.00
11736;DHT22;5924;51.398;7.088;2022-09-02T19:15:58;18.60;1.00
11736;DHT22;5924;51.398;7.088;2022-09-02T19:18:25;18.60;1.00
11736;DHT22;5924;51.398;7.088;2022-09-02T19:20:52;18.50;1.00
11736;DHT22;5924;51.398;7.088;2022-09-02T19:23:19;18.50;1.00
11736;DHT22;5924;51.398;7.088;2022-09-02T19:25:45;18.50;1.00
11736;DHT22;5924;51.398;7.088;2022-09-02T19:28:13;18.40;1.00
11736;DHT22;5924;51.398;7.088;2022-09-02T19:30:40;18.30;1.00
11736;DHT22;5924;51.398;7.088;2022-09-02T19:33:07;18.30;1.00
11736;DHT22;5924;51.398;7.088;2022-09-02T19:35:35;18.20;1.00
11736;DHT22;5924;51.398;7.088;2022-09-02T19:38:02;18.10;1.00
11736;DHT22;5924;51.398;7.088;2022-09-02T19:40:30;18.10;1.00